Time;durP1;ratioP1;P1;durP2;ratioP2;P2;SDS_P1;SDS_P2;PMS_P1;PMS_P2;Temp;Humidity;BMP_temperature;BMP_pressure;BME280_temperature;BME280_humidity;BME280_pressure;Samples;Min_cycle;Max_cycle;Signal;HPM_P1;HPM_P2
2021/11/24 00:01:02;;;;;;;15.98;9.90;;;0.10;99.90;;;;;;5061815;28;20240;-82
2021/11/24 00:03:28;;;;;;;10.05;8.63;;;0.00;99.90;;;;;;5060466;28;20241;-82
2021/11/24 00:05:55;;;;;;;10.35;9.45;;;0.00;99.90;;;;;;5065234;28;20217;-80
2021/11/24 00:08:22;;;;;;;11.02;8.38;;;0.00;99.90;;;;;;5074575;28;20206;-81
2021/11/24 00:10:49;;;;;;;11.45;9.25;;;0.10;99.90;;;;;;5074568;28;20216;-80
2021/11/24 00:13:17;;;;;;;11.07;9.02;;;0.00;99.90;;;;;;5074975;28;20222;-82
2021/11/24 00:15:44;;;;;;;11.35;8.85;;;0.00;99.90;;;;;;5065294;28;20297;-83
2021/11/24 00:18:10;;;;;;;10.68;9.27;;;-0.10;99.90;;;;;;5062790;28;20205;-82
2021/11/24 00:20:37;;;;;;;10.82;8.98;;;-0.20;99.90;;;;;;5081029;28;20224;-82
2021/11/24 00:23:04;;;;;;;10.23;9.23;;;-0.10;99.90;;;;;;5078066;28;20232;-82
2021/11/24 00:25:31;;;;;;;9.60;8.65;;;0.00;99.90;;;;;;5060573;28;20273;-82
2021/11/24 00:27:58;;;;;;;10.70;8.00;;;0.00;99.90;;;;;;5061434;28;20206;-82
2021/11/24 00:30:26;;;;;;;11.27;9.95;;;0.00;99.90;;;;;;5080470;28;20224;-82
2021/11/24 00:32:55;;;;;;;12.23;10.05;;;-0.10;99.90;;;;;;5081243;28;20236;-81
2021/11/24 00:35:21;;;;;;;10.95;7.72;;;-0.10;99.90;;;;;;5080797;28;20700;-82
2021/11/24 00:37:48;;;;;;;8.60;7.75;;;-0.20;99.90;;;;;;5080682;28;20205;-82
2021/11/24 00:40:15;;;;;;;10.95;9.60;;;-0.10;99.90;;;;;;5079772;28;20555;-82
2021/11/24 00:42:42;;;;;;;11.93;9.15;;;-0.20;99.90;;;;;;5080755;28;20239;-82
2021/11/24 00:45:09;;;;;;;11.20;8.70;;;-0.20;99.90;;;;;;5063726;28;20204;-82
2021/11/24 00:47:37;;;;;;;9.55;7.82;;;-0.20;99.90;;;;;;5060915;28;20313;-82
2021/11/24 00:50:05;;;;;;;9.02;8.13;;;-0.20;99.90;;;;;;5060446;28;20209;-82
2021/11/24 00:52:32;;;;;;;13.32;9.65;;;-0.30;99.90;;;;;;5059882;28;20198;-82
2021/11/24 00:54:59;;;;;;;10.48;9.43;;;-0.30;99.90;;;;;;5060589;28;20210;-82
2021/11/24 00:57:26;;;;;;;13.85;8.43;;;-0.50;99.90;;;;;;5058473;28;20218;-82
2021/11/24 00:59:53;;;;;;;14.95;9.02;;;-0.40;99.90;;;;;;5072323;28;20231;-82
2021/11/24 01:02:20;;;;;;;12.15;8.73;;;-0.40;99.90;;;;;;5078339;28;20213;-82
2021/11/24 01:04:48;;;;;;;11.85;10.00;;;-0.50;99.90;;;;;;5067139;28;20202;-82
2021/11/24 01:07:15;;;;;;;9.52;8.10;;;-0.50;99.90;;;;;;5059214;28;20206;-82
2021/11/24 01:09:42;;;;;;;9.95;8.90;;;-0.40;99.90;;;;;;5058644;28;20205;-82
2021/11/24 01:12:09;;;;;;;9.50;7.85;;;-0.40;99.90;;;;;;5058301;28;20672;-82
2021/11/24 01:14:36;;;;;;;11.60;8.65;;;-0.40;99.90;;;;;;5058271;28;20234;-82
2021/11/24 01:17:02;;;;;;;10.77;7.80;;;-0.30;99.90;;;;;;5058630;28;20482;-82
2021/11/24 01:19:29;;;;;;;9.02;8.30;;;-0.30;99.90;;;;;;5071754;28;20205;-82
2021/11/24 01:21:57;;;;;;;11.18;9.23;;;-0.40;99.90;;;;;;5078774;28;20209;-82
2021/11/24 01:24:24;;;;;;;8.93;7.97;;;-0.60;99.90;;;;;;5078203;28;20233;-81
2021/11/24 01:26:51;;;;;;;7.20;6.60;;;-0.70;99.90;;;;;;5077959;28;20675;-82
2021/11/24 01:29:17;;;;;;;7.63;7.03;;;-0.70;99.90;;;;;;5078780;28;20219;-82
2021/11/24 01:31:44;;;;;;;8.38;7.53;;;-0.60;99.90;;;;;;5078040;28;20232;-82
2021/11/24 01:34:11;;;;;;;8.25;7.30;;;-0.80;99.90;;;;;;5078153;28;20220;-82
2021/11/24 01:36:38;;;;;;;10.70;7.72;;;-0.80;99.90;;;;;;5076127;28;20206;-82
2021/11/24 01:39:06;;;;;;;7.63;6.93;;;-0.70;99.90;;;;;;5058670;28;20209;-82
2021/11/24 01:41:32;;;;;;;8.35;7.28;;;-0.60;99.90;;;;;;5059496;28;20702;-81
2021/11/24 01:43:59;;;;;;;7.28;6.65;;;-0.50;99.90;;;;;;5062134;28;20718;-82
2021/11/24 01:46:26;;;;;;;7.38;6.70;;;-0.50;99.90;;;;;;5062145;28;20213;-81
2021/11/24 01:48:53;;;;;;;9.25;6.35;;;-0.40;99.90;;;;;;5060230;28;20201;-82
2021/11/24 01:51:20;;;;;;;7.82;7.10;;;-0.50;99.90;;;;;;5058527;28;20231;-82
2021/11/24 01:53:47;;;;;;;8.80;8.02;;;-0.50;99.90;;;;;;5058203;28;20225;-81
2021/11/24 01:56:16;;;;;;;8.70;7.50;;;-0.60;99.90;;;;;;5058199;28;20205;-82
2021/11/24 01:58:43;;;;;;;8.63;7.78;;;-0.50;99.90;;;;;;5065052;28;20211;-82
2021/11/24 02:01:10;;;;;;;11.13;7.55;;;-0.50;99.90;;;;;;5078097;28;20692;-82
2021/11/24 02:03:37;;;;;;;8.25;7.47;;;-0.50;99.90;;;;;;5070563;28;20221;-82
2021/11/24 02:06:04;;;;;;;9.18;7.70;;;-0.50;99.90;;;;;;5058792;28;20209;-82
2021/11/24 02:13:35;;;;;;;9.15;7.18;;;-0.40;99.90;;;;;;5096226;28;20235;-82
2021/11/24 02:16:01;;;;;;;8.40;7.50;;;-0.40;99.90;;;;;;5099607;28;20204;-81
2021/11/24 02:18:28;;;;;;;9.50;7.35;;;-0.70;99.90;;;;;;5099486;28;20197;-82
2021/11/24 02:20:56;;;;;;;7.57;6.82;;;-0.60;99.90;;;;;;5096465;28;20322;-82
2021/11/24 02:23:23;;;;;;;9.68;7.03;;;-0.60;99.90;;;;;;5079258;28;20217;-81
2021/11/24 02:25:49;;;;;;;8.85;6.72;;;-0.60;99.90;;;;;;5081256;28;20209;-81
2021/11/24 02:28:17;;;;;;;9.13;7.68;;;-0.60;99.90;;;;;;5099771;22;20237;-80
2021/11/24 02:30:43;;;;;;;10.95;7.75;;;-0.60;99.90;;;;;;5088669;28;20205;-80
2021/11/24 02:33:10;;;;;;;11.52;7.88;;;-0.60;99.90;;;;;;5087767;28;20251;-79
2021/11/24 02:35:37;;;;;;;10.07;7.22;;;-0.60;99.90;;;;;;5091174;28;20209;-77
2021/11/24 02:38:06;;;;;;;9.35;6.85;;;-0.50;99.90;;;;;;5084569;28;20232;-78
2021/11/24 02:40:34;;;;;;;11.45;9.55;;;-0.50;99.90;;;;;;5074674;28;20206;-80
2021/11/24 02:43:02;;;;;;;10.77;6.05;;;-0.50;99.90;;;;;;5078197;28;20227;-80
2021/11/24 02:45:29;;;;;;;9.07;6.90;;;-0.60;99.90;;;;;;5088170;28;20205;-80
2021/11/24 02:47:56;;;;;;;5.78;4.75;;;-0.60;99.90;;;;;;5083086;28;20230;-79
2021/11/24 02:50:23;;;;;;;10.40;7.05;;;-0.60;99.90;;;;;;5075377;28;20206;-77
2021/11/24 02:52:50;;;;;;;7.95;7.15;;;-0.60;99.90;;;;;;5078175;28;20185;-79
2021/11/24 02:55:18;;;;;;;7.85;7.13;;;-0.60;99.90;;;;;;5068794;28;20324;-80
2021/11/24 02:57:47;;;;;;;7.20;6.35;;;-0.60;99.90;;;;;;5077962;28;20229;-79
2021/11/24 03:00:16;;;;;;;7.38;6.63;;;-0.60;99.90;;;;;;5093867;28;20220;-77
2021/11/24 03:02:42;;;;;;;6.72;5.97;;;-0.50;99.90;;;;;;5085834;28;20234;-79
2021/11/24 03:05:11;;;;;;;7.95;7.25;;;-0.60;99.90;;;;;;5073061;28;20620;-80
2021/11/24 03:07:37;;;;;;;7.22;6.20;;;-0.60;99.90;;;;;;5061941;28;20225;-79
2021/11/24 03:10:06;;;;;;;10.55;8.02;;;-0.70;99.90;;;;;;5055771;28;20205;-79
2021/11/24 03:12:34;;;;;;;8.68;6.72;;;-0.70;99.90;;;;;;5062409;28;20205;-79
2021/11/24 03:15:02;;;;;;;8.73;7.25;;;-0.70;99.90;;;;;;5075891;28;20201;-80
2021/11/24 03:17:28;;;;;;;8.20;6.82;;;-0.70;99.90;;;;;;5069398;28;20226;-79
2021/11/24 03:19:57;;;;;;;7.55;6.85;;;-0.70;99.90;;;;;;5055290;28;20221;-80
2021/11/24 03:22:24;;;;;;;6.60;6.00;;;-0.70;99.90;;;;;;5055677;28;20197;-79
2021/11/24 03:24:55;;;;;;;9.15;7.47;;;-0.60;99.90;;;;;;5055212;28;20601;-79
2021/11/24 03:27:23;;;;;;;9.68;7.07;;;-0.60;99.90;;;;;;5055436;28;20225;-80
2021/11/24 03:29:51;;;;;;;9.32;7.40;;;-0.60;99.90;;;;;;5055013;28;20206;-79
2021/11/24 03:32:18;;;;;;;8.40;7.47;;;-0.60;99.90;;;;;;5055355;28;20212;-80
2021/11/24 03:34:45;;;;;;;7.88;7.07;;;-0.50;99.90;;;;;;5055261;28;20202;-79
2021/11/24 03:37:12;;;;;;;8.93;6.97;;;-0.50;99.90;;;;;;5056102;28;20239;-79
2021/11/24 03:39:39;;;;;;;6.90;6.40;;;-0.50;99.90;;;;;;5055741;28;20212;-79
2021/11/24 03:42:06;;;;;;;8.68;7.30;;;-0.50;99.90;;;;;;5054522;28;20667;-79
2021/11/24 03:44:33;;;;;;;9.05;8.25;;;-0.50;99.90;;;;;;5054641;28;20599;-79
2021/11/24 03:47:01;;;;;;;8.63;6.03;;;-0.60;99.90;;;;;;5056504;28;20226;-79
2021/11/24 03:49:28;;;;;;;8.43;6.90;;;-0.70;99.90;;;;;;5073166;28;20209;-79
2021/11/24 03:51:54;;;;;;;9.43;8.52;;;-0.80;99.90;;;;;;5073361;28;20205;-79
2021/11/24 03:54:21;;;;;;;7.05;6.40;;;-0.80;99.90;;;;;;5054609;28;20663;-79
2021/11/24 03:56:48;;;;;;;10.77;7.65;;;-0.80;99.90;;;;;;5054420;28;20232;-79
2021/11/24 03:59:15;;;;;;;7.43;6.78;;;-0.70;99.90;;;;;;5054860;28;20677;-79
2021/11/24 04:01:41;;;;;;;7.50;6.80;;;-0.70;99.90;;;;;;5054440;28;20694;-79
2021/11/24 04:04:09;;;;;;;8.00;7.22;;;-0.70;99.90;;;;;;5072559;28;20225;-80
2021/11/24 04:06:36;;;;;;;9.35;8.45;;;-0.70;99.90;;;;;;5074325;28;20221;-80
2021/11/24 04:09:03;;;;;;;8.55;7.65;;;-0.70;99.90;;;;;;5057467;28;20197;-79
2021/11/24 04:11:30;;;;;;;17.35;7.32;;;-0.70;99.90;;;;;;5054324;28;20210;-79
2021/11/24 04:13:57;;;;;;;9.73;8.02;;;-0.70;99.90;;;;;;5069210;28;20201;-79
2021/11/24 04:16:24;;;;;;;13.38;8.70;;;-0.80;99.90;;;;;;5074138;28;20213;-79
2021/11/24 04:18:51;;;;;;;8.48;7.63;;;-0.80;99.90;;;;;;5059648;28;20204;-79
2021/11/24 04:21:19;;;;;;;9.10;7.43;;;-0.90;99.90;;;;;;5054312;28;20201;-79
2021/11/24 04:23:47;;;;;;;10.45;8.25;;;-0.90;99.90;;;;;;5066403;28;20228;-79
2021/11/24 04:26:14;;;;;;;9.20;8.30;;;-1.10;99.90;;;;;;5074162;28;20212;-79
2021/11/24 04:28:40;;;;;;;8.27;7.22;;;-1.10;99.90;;;;;;5061735;28;20670;-79
2021/11/24 04:31:09;;;;;;;9.90;8.02;;;-1.20;99.90;;;;;;5053540;28;20209;-79
2021/11/24 04:33:36;;;;;;;10.10;6.68;;;-1.20;99.90;;;;;;5053551;28;20204;-79
2021/11/24 04:36:04;;;;;;;7.40;6.78;;;-1.10;99.90;;;;;;5053552;28;20683;-79
2021/11/24 04:38:32;;;;;;;9.48;7.93;;;-1.10;99.90;;;;;;5053789;28;20225;-79
2021/11/24 04:40:59;;;;;;;8.55;7.30;;;-1.20;99.90;;;;;;5053516;28;20210;-79
2021/11/24 04:43:29;;;;;;;11.43;9.20;;;-1.10;99.90;;;;;;5055817;28;20204;-79
2021/11/24 04:45:56;;;;;;;10.70;9.45;;;-1.10;99.90;;;;;;5053710;28;20213;-79
2021/11/24 04:48:23;;;;;;;9.55;8.55;;;-1.30;99.90;;;;;;5063135;28;20227;-79
2021/11/24 04:50:50;;;;;;;11.50;9.85;;;-1.60;99.90;;;;;;5072923;28;20689;-79
2021/11/24 04:53:17;;;;;;;13.15;9.63;;;-1.70;99.90;;;;;;5064041;28;20289;-79
2021/11/24 04:55:45;;;;;;;10.93;9.82;;;-1.60;99.90;;;;;;5053516;28;20228;-80
2021/11/24 04:58:12;;;;;;;11.68;9.55;;;-1.60;99.90;;;;;;5061972;28;20225;-79
2021/11/24 05:00:39;;;;;;;14.27;10.30;;;-1.70;99.90;;;;;;5075171;28;20201;-80
2021/11/24 05:03:06;;;;;;;11.00;9.23;;;-1.80;99.90;;;;;;5068624;28;20621;-80
2021/11/24 05:05:33;;;;;;;12.82;10.18;;;-1.70;99.90;;;;;;5054942;28;20257;-80
2021/11/24 05:08:01;;;;;;;12.07;9.65;;;-1.80;99.90;;;;;;5060103;28;20220;-80
2021/11/24 05:10:28;;;;;;;8.50;7.60;;;-1.80;99.90;;;;;;5074612;28;20255;-80
2021/11/24 05:12:57;;;;;;;11.63;10.30;;;-1.80;99.90;;;;;;5065791;28;20204;-80
2021/11/24 05:15:26;;;;;;;10.30;9.30;;;-1.70;99.90;;;;;;5054620;28;20207;-80
2021/11/24 05:17:56;;;;;;;11.80;9.38;;;-1.70;99.90;;;;;;5062267;28;20227;-80
2021/11/24 05:20:25;;;;;;;17.10;11.13;;;-1.70;99.90;;;;;;5074194;28;20201;-80
2021/11/24 05:22:53;;;;;;;14.02;10.50;;;-1.70;99.90;;;;;;5067667;28;20236;-80
2021/11/24 05:25:20;;;;;;;14.55;11.18;;;-1.80;99.90;;;;;;5054467;28;20231;-80
2021/11/24 05:27:47;;;;;;;12.10;11.05;;;-1.80;99.90;;;;;;5065775;28;20238;-79
2021/11/24 05:30:15;;;;;;;12.35;10.07;;;-1.80;99.90;;;;;;5081381;28;20403;-79
2021/11/24 05:32:42;;;;;;;12.15;10.00;;;-1.90;99.90;;;;;;5071166;28;20208;-80
2021/11/24 05:35:09;;;;;;;16.17;10.35;;;-1.90;99.90;;;;;;5054747;28;20210;-79
2021/11/24 05:37:36;;;;;;;13.20;11.25;;;-1.80;99.90;;;;;;5058060;28;20220;-79
2021/11/24 05:40:04;;;;;;;13.38;12.10;;;-1.90;99.90;;;;;;5074577;28;20296;-80
2021/11/24 05:42:30;;;;;;;13.57;10.63;;;-1.90;99.90;;;;;;5072096;28;20697;-80
2021/11/24 05:45:13;;;;;;;10.70;9.75;;;-1.90;99.90;;;;;;5054600;28;20232;-79
2021/11/24 05:47:54;;;;;;;11.23;9.70;;;-1.90;99.90;;;;;;5061017;28;20236;-80
2021/11/24 05:50:21;;;;;;;12.10;10.23;;;-2.00;99.90;;;;;;5074538;28;20220;-80
2021/11/24 05:52:48;;;;;;;11.60;10.10;;;-1.90;99.90;;;;;;5069978;28;20201;-80
2021/11/24 05:55:15;;;;;;;14.35;11.48;;;-1.80;99.90;;;;;;5065932;28;20208;-80
2021/11/24 05:57:42;;;;;;;13.07;11.48;;;-1.90;99.90;;;;;;5074076;28;20576;-80
2021/11/24 06:00:10;;;;;;;19.02;10.57;;;-2.00;99.90;;;;;;5073602;28;20291;-80
2021/11/24 06:02:37;;;;;;;13.20;10.90;;;-1.90;99.90;;;;;;5080003;28;20231;-80
2021/11/24 06:05:07;;;;;;;11.18;10.00;;;-1.90;99.90;;;;;;5076518;28;20304;-79
2021/11/24 06:07:34;;;;;;;13.05;11.85;;;-1.80;99.90;;;;;;5077956;28;20225;-80
2021/11/24 06:10:01;;;;;;;12.75;10.85;;;-1.80;99.90;;;;;;5075556;28;20279;-80
2021/11/24 06:12:28;;;;;;;16.40;12.20;;;-1.80;99.90;;;;;;5058078;28;20217;-80
2021/11/24 06:14:54;;;;;;;12.30;11.10;;;-1.90;99.90;;;;;;5059203;28;20202;-79
2021/11/24 06:17:21;;;;;;;12.25;10.98;;;-1.90;99.90;;;;;;5078626;28;20221;-80
2021/11/24 06:19:48;;;;;;;15.07;12.00;;;-1.90;99.90;;;;;;5069156;28;20222;-80
2021/11/24 06:22:16;;;;;;;13.50;11.65;;;-2.00;99.90;;;;;;5058327;28;20198;-80
2021/11/24 06:24:43;;;;;;;15.40;12.90;;;-2.00;99.90;;;;;;5057503;28;20232;-80
2021/11/24 06:27:10;;;;;;;13.68;11.25;;;-2.10;99.90;;;;;;5059223;28;20609;-83
2021/11/24 06:29:37;;;;;;;12.55;11.23;;;-2.10;99.90;;;;;;5058567;28;20292;-79
2021/11/24 06:32:04;;;;;;;14.25;11.27;;;-2.10;99.90;;;;;;5057528;28;20583;-80
2021/11/24 06:34:31;;;;;;;14.93;12.18;;;-2.10;99.90;;;;;;5057724;28;20205;-80
2021/11/24 06:36:58;;;;;;;13.82;12.40;;;-2.20;99.90;;;;;;5058250;28;20236;-80
2021/11/24 06:39:27;;;;;;;13.23;11.80;;;-2.10;99.90;;;;;;5057607;28;20386;-79
2021/11/24 06:41:55;;;;;;;12.75;11.18;;;-1.90;99.90;;;;;;5058794;28;20816;-80
2021/11/24 06:44:22;;;;;;;13.15;11.35;;;-1.80;99.90;;;;;;5057505;28;20218;-80
2021/11/24 06:46:49;;;;;;;16.00;12.50;;;-1.70;99.90;;;;;;5057620;28;20233;-80
2021/11/24 06:49:16;;;;;;;11.93;10.15;;;-1.70;99.90;;;;;;5057759;28;20577;-80
2021/11/24 06:51:43;;;;;;;14.07;12.68;;;-1.50;99.90;;;;;;5057540;28;20206;-80
2021/11/24 06:54:10;;;;;;;12.98;11.50;;;-1.50;99.90;;;;;;5057421;28;20205;-80
2021/11/24 06:56:38;;;;;;;11.68;10.40;;;-1.40;99.90;;;;;;5057790;28;20229;-80
2021/11/24 06:59:05;;;;;;;11.57;10.13;;;-1.40;99.90;;;;;;5057145;28;20224;-80
2021/11/24 07:01:32;;;;;;;11.30;9.55;;;-1.30;99.90;;;;;;5057425;28;20209;-80
2021/11/24 07:03:59;;;;;;;11.70;9.88;;;-1.30;99.90;;;;;;5058353;28;20205;-79
2021/11/24 07:06:26;;;;;;;14.18;10.40;;;-1.20;99.90;;;;;;5059838;28;20202;-79
2021/11/24 07:08:52;;;;;;;12.90;10.43;;;-1.10;99.90;;;;;;5058918;28;20223;-80
2021/11/24 07:11:19;;;;;;;11.30;10.20;;;-1.20;99.90;;;;;;5059111;28;20702;-79
2021/11/24 07:13:48;;;;;;;13.38;10.80;;;-1.10;99.90;;;;;;5059569;28;20201;-79
2021/11/24 07:16:14;;;;;;;13.30;11.95;;;-1.20;99.90;;;;;;5059468;28;20202;-79
2021/11/24 07:18:41;;;;;;;14.70;12.80;;;-1.10;99.90;;;;;;5059145;28;20208;-80
2021/11/24 07:21:08;;;;;;;14.15;12.00;;;-1.00;99.90;;;;;;5058650;28;20212;-80
2021/11/24 07:23:35;;;;;;;14.95;10.90;;;-0.90;99.90;;;;;;5067757;28;20197;-80
2021/11/24 07:26:01;;;;;;;14.25;12.93;;;-0.90;99.90;;;;;;5068792;28;20268;-80
2021/11/24 07:28:30;;;;;;;12.70;11.43;;;-1.00;99.90;;;;;;5060330;28;20240;-80
2021/11/24 07:30:58;;;;;;;15.57;11.77;;;-1.00;99.90;;;;;;5067730;28;20217;-80
2021/11/24 07:33:25;;;;;;;13.05;11.68;;;-0.90;99.90;;;;;;5075044;28;20214;-80
2021/11/24 07:35:52;;;;;;;16.90;11.90;;;-1.10;99.90;;;;;;5073887;28;20202;-80
2021/11/24 07:38:18;;;;;;;16.42;12.07;;;-1.10;99.90;;;;;;5078278;28;20221;-80
2021/11/24 07:40:46;;;;;;;13.75;11.77;;;-1.00;99.90;;;;;;5089147;28;20361;-80
2021/11/24 07:43:13;;;;;;;15.13;11.63;;;-0.90;99.90;;;;;;5069327;28;20197;-78
2021/11/24 07:45:40;;;;;;;12.90;11.70;;;-0.80;99.90;;;;;;5069035;28;20213;-78
2021/11/24 07:48:08;;;;;;;13.18;11.88;;;-0.70;99.90;;;;;;5076290;28;20712;-80
2021/11/24 07:50:35;;;;;;;14.48;11.27;;;-0.60;99.90;;;;;;5075365;28;20216;-80
2021/11/24 07:53:01;;;;;;;19.00;15.13;;;-0.50;99.90;;;;;;5068143;28;20205;-78
2021/11/24 07:55:28;;;;;;;18.00;12.10;;;-0.40;99.90;;;;;;5073835;28;20208;-77
2021/11/24 07:57:55;;;;;;;12.63;11.27;;;-0.60;99.90;;;;;;5073889;28;20221;-77
2021/11/24 08:00:22;;;;;;;19.60;14.25;;;-0.50;99.90;;;;;;5071894;28;20197;-77
2021/11/24 08:02:49;;;;;;;16.83;12.43;;;-0.40;99.90;;;;;;5073098;28;20684;-78
2021/11/24 08:05:17;;;;;;;14.38;12.60;;;-0.30;99.90;;;;;;5073000;28;20598;-78
2021/11/24 08:07:44;;;;;;;16.48;13.90;;;-0.30;99.90;;;;;;5072968;28;20707;-81
2021/11/24 08:10:12;;;;;;;15.90;14.50;;;-0.10;99.90;;;;;;5068154;28;20216;-81
2021/11/24 08:12:39;;;;;;;16.00;14.20;;;0.00;99.90;;;;;;5060389;28;20209;-80
2021/11/24 08:15:08;;;;;;;16.92;13.07;;;0.00;99.90;;;;;;5059056;28;20202;-80
2021/11/24 08:17:35;;;;;;;19.67;13.52;;;0.00;99.90;;;;;;5058726;28;20237;-80
2021/11/24 08:20:03;;;;;;;16.08;14.10;;;-0.30;99.90;;;;;;5059353;28;20263;-80
2021/11/24 08:22:32;;;;;;;20.70;16.30;;;-0.10;99.90;;;;;;5058111;28;20245;-80
2021/11/24 08:24:58;;;;;;;22.42;15.20;;;-0.20;99.90;;;;;;5059101;28;20225;-80
2021/11/24 08:27:25;;;;;;;19.95;16.15;;;-0.10;99.90;;;;;;5085129;23;20228;-82
2021/11/24 08:29:52;;;;;;;17.15;14.93;;;0.00;99.90;;;;;;5102626;28;20706;-79
2021/11/24 08:32:19;;;;;;;18.63;15.32;;;0.00;99.90;;;;;;5102611;28;20204;-82
2021/11/24 08:34:45;;;;;;;14.73;13.10;;;0.20;99.90;;;;;;5104292;28;20685;-81
2021/11/24 08:37:13;;;;;;;16.95;15.30;;;0.40;99.90;;;;;;5098245;28;20230;-81
2021/11/24 08:39:42;;;;;;;23.33;17.90;;;0.50;99.90;;;;;;5082967;28;20205;-80
2021/11/24 08:42:09;;;;;;;20.40;14.77;;;0.30;99.90;;;;;;5082996;28;20208;-81
2021/11/24 08:44:36;;;;;;;21.77;16.90;;;0.30;99.90;;;;;;5083477;28;20201;-80
2021/11/24 08:47:03;;;;;;;21.80;18.08;;;0.30;99.90;;;;;;5082637;28;20240;-80
2021/11/24 08:49:30;;;;;;;22.33;17.63;;;0.20;99.90;;;;;;5082456;28;20204;-82
2021/11/24 08:51:57;;;;;;;22.65;15.90;;;0.20;99.90;;;;;;5081998;28;20212;-81
2021/11/24 08:54:24;;;;;;;24.80;17.85;;;0.20;99.90;;;;;;5082982;28;20211;-83
2021/11/24 08:56:52;;;;;;;20.83;16.77;;;0.50;99.90;;;;;;5082696;28;20241;-81
2021/11/24 08:59:18;;;;;;;21.83;16.33;;;0.60;99.90;;;;;;5082974;28;20212;-82
2021/11/24 09:01:45;;;;;;;18.35;16.45;;;0.80;99.90;;;;;;5082212;28;20207;-82
2021/11/24 09:04:12;;;;;;;22.75;19.70;;;0.90;99.90;;;;;;5082636;28;20270;-81
2021/11/24 09:06:39;;;;;;;20.85;14.60;;;1.00;99.90;;;;;;5082297;28;20229;-81
2021/11/24 09:09:07;;;;;;;22.88;17.70;;;1.10;99.90;;;;;;5081375;28;20673;-81
2021/11/24 09:11:35;;;;;;;23.30;15.95;;;1.30;99.90;;;;;;5080510;28;20210;-82
2021/11/24 09:14:03;;;;;;;22.60;16.13;;;1.40;99.90;;;;;;5079246;28;20206;-81
2021/11/24 09:16:30;;;;;;;18.73;15.68;;;1.60;99.90;;;;;;5079301;28;20194;-82
2021/11/24 09:18:58;;;;;;;20.15;16.17;;;1.80;99.90;;;;;;5079590;28;20217;-83
2021/11/24 09:21:25;;;;;;;18.60;13.77;;;1.90;99.90;;;;;;5079200;28;20233;-82
2021/11/24 09:23:52;;;;;;;18.73;15.38;;;2.10;99.90;;;;;;5079656;28;20205;-80
2021/11/24 09:26:26;;;;;;;27.27;17.05;;;2.30;99.90;;;;;;5079292;28;20229;-83
2021/11/24 09:28:53;;;;;;;21.63;15.75;;;2.40;99.90;;;;;;5078909;28;20295;-82
2021/11/24 09:31:21;;;;;;;19.23;14.32;;;2.50;99.90;;;;;;5078544;28;20230;-83
2021/11/24 09:33:48;;;;;;;21.27;14.73;;;2.60;99.90;;;;;;5078333;28;20213;-83
2021/11/24 09:36:15;;;;;;;22.30;15.57;;;2.70;99.90;;;;;;5078031;28;20207;-83
2021/11/24 09:38:42;;;;;;;15.88;13.00;;;2.80;99.90;;;;;;5078159;28;20223;-82
2021/11/24 09:41:12;;;;;;;23.23;14.95;;;2.90;99.90;;;;;;5077276;28;20207;-82
2021/11/24 09:43:41;;;;;;;19.65;14.55;;;3.10;99.90;;;;;;5077173;28;20234;-82
2021/11/24 09:46:09;;;;;;;16.10;14.32;;;3.30;99.90;;;;;;5077221;28;20712;-83
2021/11/24 09:48:41;;;;;;;21.52;15.43;;;3.50;99.90;;;;;;5077823;28;20583;-83
2021/11/24 09:51:08;;;;;;;15.88;13.38;;;3.70;99.90;;;;;;5076838;28;20208;-83
2021/11/24 09:53:35;;;;;;;19.33;13.45;;;3.90;99.90;;;;;;5077927;28;20213;-81
2021/11/24 09:56:02;;;;;;;18.17;14.18;;;4.00;99.90;;;;;;5077637;28;20207;-83
2021/11/24 09:58:29;;;;;;;17.95;12.75;;;4.20;99.90;;;;;;5077717;28;20229;-83
2021/11/24 10:00:57;;;;;;;22.27;13.95;;;4.30;99.90;;;;;;5077385;28;20290;-83
2021/11/24 10:03:25;;;;;;;14.45;11.73;;;4.40;99.90;;;;;;5077899;28;20208;-83
2021/11/24 10:05:53;;;;;;;16.95;14.57;;;4.50;99.90;;;;;;5077284;28;20251;-83
2021/11/24 10:08:21;;;;;;;14.38;12.38;;;4.50;99.90;;;;;;5078120;28;20709;-83
2021/11/24 10:10:47;;;;;;;20.17;12.25;;;4.60;99.90;;;;;;5078030;28;20205;-83
2021/11/24 10:13:14;;;;;;;17.85;13.07;;;4.70;99.90;;;;;;5077678;28;20213;-83
2021/11/24 10:15:45;;;;;;;16.52;13.02;;;4.80;99.90;;;;;;5078408;28;20209;-83
2021/11/24 10:18:19;;;;;;;15.30;12.15;;;4.90;99.90;;;;;;5078480;28;20229;-83
2021/11/24 10:20:54;;;;;;;14.00;12.50;;;5.00;99.90;;;;;;5077704;28;20212;-83
2021/11/24 10:23:31;;;;;;;16.67;12.93;;;5.10;99.90;;;;;;5077824;28;20209;-83
2021/11/24 10:26:13;;;;;;;14.65;11.93;;;5.30;99.90;;;;;;5078179;28;20287;-82
2021/11/24 10:28:40;;;;;;;17.10;13.50;;;5.40;99.90;;;;;;5077055;28;20654;-83
2021/11/24 10:31:34;;;;;;;16.25;13.88;;;5.40;99.90;;;;;;5077145;28;20570;-84
2021/11/24 10:34:02;;;;;;;16.45;13.70;;;5.50;99.90;;;;;;5077781;28;20209;-84
2021/11/24 10:36:30;;;;;;;11.93;10.40;;;5.70;99.90;;;;;;5077043;28;20208;-83
2021/11/24 10:38:57;;;;;;;13.55;12.13;;;6.00;99.90;;;;;;5077398;28;20686;-83
2021/11/24 10:41:36;;;;;;;16.40;13.30;;;6.10;99.90;;;;;;5077671;28;20204;-82
2021/11/24 10:44:04;;;;;;;14.50;11.50;;;6.20;99.90;;;;;;5077598;28;20212;-83
2021/11/24 10:46:32;;;;;;;12.93;11.50;;;6.20;99.90;;;;;;5077702;28;20221;-83
2021/11/24 10:49:04;;;;;;;15.77;12.27;;;6.20;99.90;;;;;;5081017;28;20220;-83
2021/11/24 10:51:38;;;;;;;13.48;11.80;;;6.30;99.90;;;;;;5080464;28;20193;-83
2021/11/24 10:54:06;;;;;;;14.00;12.02;;;6.50;99.90;;;;;;5081138;28;20676;-83
2021/11/24 10:56:33;;;;;;;13.35;11.63;;;6.90;99.90;;;;;;5080404;28;20249;-84
2021/11/24 10:59:17;;;;;;;12.85;11.65;;;7.40;99.90;;;;;;5080704;28;20209;-83
2021/11/24 11:01:44;;;;;;;13.48;12.00;;;7.90;99.40;;;;;;5080301;28;20212;-83
2021/11/24 11:04:12;;;;;;;15.30;13.13;;;8.20;98.00;;;;;;5080479;28;20205;-83
2021/11/24 11:06:41;;;;;;;16.92;12.35;;;9.00;98.10;;;;;;5080656;28;20257;-83
2021/11/24 11:09:08;;;;;;;14.00;11.73;;;9.90;97.00;;;;;;5080583;28;20208;-83
2021/11/24 11:11:38;;;;;;;12.47;11.17;;;10.90;93.60;;;;;;5080825;28;20457;-83
2021/11/24 11:14:15;;;;;;;15.17;12.93;;;11.40;91.20;;;;;;5081418;28;20446;-84
2021/11/24 11:16:44;;;;;;;17.03;13.13;;;12.10;89.30;;;;;;5079944;28;20461;-80
2021/11/24 11:19:11;;;;;;;16.70;12.97;;;12.30;87.00;;;;;;5098097;28;20481;-80
2021/11/24 11:21:40;;;;;;;15.27;13.73;;;11.90;85.00;;;;;;5095695;28;20473;-84
2021/11/24 11:24:07;;;;;;;12.70;11.40;;;11.80;85.50;;;;;;5092870;28;20529;-83
2021/11/24 11:26:34;;;;;;;14.53;12.93;;;12.00;86.50;;;;;;5084138;28;20492;-84
2021/11/24 11:29:01;;;;;;;14.90;13.23;;;12.70;84.70;;;;;;5085970;28;20489;-81
2021/11/24 11:31:28;;;;;;;16.23;12.63;;;12.70;81.50;;;;;;5091405;28;20442;-83
2021/11/24 11:33:59;;;;;;;14.27;12.43;;;12.90;81.00;;;;;;5087570;28;20457;-83
2021/11/24 11:36:26;;;;;;;14.30;12.80;;;12.90;79.30;;;;;;5081275;28;20447;-83
2021/11/24 11:38:56;;;;;;;16.40;12.97;;;12.90;78.80;;;;;;5081516;28;20470;-84
2021/11/24 11:41:25;;;;;;;14.13;11.97;;;13.30;78.90;;;;;;5084414;28;20873;-83
2021/11/24 11:43:53;;;;;;;13.37;11.87;;;13.60;77.60;;;;;;5084605;28;20452;-82
2021/11/24 11:46:22;;;;;;;14.00;12.30;;;14.10;77.30;;;;;;5086612;28;20502;-81
2021/11/24 11:48:51;;;;;;;13.97;11.80;;;14.80;75.60;;;;;;5087686;28;20467;-82
2021/11/24 11:51:28;;;;;;;13.23;11.83;;;15.70;73.50;;;;;;5085793;28;20453;-82
2021/11/24 11:53:56;;;;;;;13.23;11.77;;;16.60;70.70;;;;;;5084028;28;20444;-83
2021/11/24 11:56:24;;;;;;;15.27;13.77;;;17.00;66.20;;;;;;5089056;28;20527;-83
2021/11/24 11:58:54;;;;;;;12.87;11.13;;;17.00;64.90;;;;;;5089936;28;20555;-82
2021/11/24 12:01:24;;;;;;;13.17;11.87;;;17.10;62.30;;;;;;5087573;28;20454;-83
2021/11/24 12:04:09;;;;;;;12.70;10.87;;;17.40;61.90;;;;;;5083707;28;20484;-83
2021/11/24 12:06:39;;;;;;;16.50;11.27;;;17.70;58.90;;;;;;5082537;28;20446;-82
2021/11/24 12:09:29;;;;;;;11.73;10.60;;;17.60;57.90;;;;;;5087243;28;20478;-82
2021/11/24 12:12:07;;;;;;;11.70;10.43;;;17.20;58.30;;;;;;5086938;28;20467;-83
2021/11/24 12:15:07;;;;;;;11.73;10.50;;;17.80;58.10;;;;;;5086438;28;20514;-82
2021/11/24 12:17:53;;;;;;;12.97;10.17;;;18.30;55.40;;;;;;5085804;28;20485;-83
2021/11/24 12:20:48;;;;;;;14.90;11.27;;;18.50;54.90;;;;;;5085507;28;20454;-82
2021/11/24 12:23:18;;;;;;;11.97;10.70;;;18.70;54.50;;;;;;5078946;28;20504;-83
2021/11/24 12:25:47;;;;;;;12.83;11.53;;;19.00;53.00;;;;;;5088527;28;20524;-83
2021/11/24 12:28:17;;;;;;;10.90;9.80;;;19.20;53.00;;;;;;5085829;28;20886;-83
2021/11/24 12:31:05;;;;;;;11.33;10.23;;;18.60;51.60;;;;;;5084294;28;20456;-83
2021/11/24 12:33:38;;;;;;;12.47;11.30;;;18.20;51.40;;;;;;5092043;28;20517;-83
2021/11/24 12:36:08;;;;;;;12.53;9.87;;;17.40;52.60;;;;;;5091939;28;20542;-84
2021/11/24 12:38:38;;;;;;;10.13;9.13;;;16.70;52.90;;;;;;5094936;28;20514;-84
2021/11/24 12:41:09;;;;;;;12.47;9.80;;;16.30;54.00;;;;;;5095668;28;20523;-84
2021/11/24 12:43:38;;;;;;;12.20;10.10;;;16.00;54.60;;;;;;5096159;28;20439;-83
2021/11/24 12:46:11;;;;;;;12.40;11.20;;;15.70;54.90;;;;;;5096735;28;20471;-83